Terminal Aerodrome Forecast
Issued by NWS

Home | Current Version | Previous Version | Text Only | Print | Product List | Glossary On
Versions: 1 2 3 4 5 6 7 8 9 10 11 12 13 14
000
FTUS45 KTFX 232320
TAFLWT
TAF
KLWT 232320Z 2400/2424 32013G22KT P6SM SCT060 BKN090
     FM240200 31011KT P6SM SCT040 BKN060
     FM240600 29011KT P6SM VCSH SCT020 OVC035
     FM240900 30011KT P6SM VCSH SCT010 OVC020 PROB30 2411/2415 -SHRA
      BKN008
     FM241800 33011KT P6SM SCT020 BKN035=

USA.gov is the U.S. government's official web portal to all federal, state and local government web resources and services.